BEL2VF LDZD-EBBR
Flight info
| Callsign | BEL2VF |
|---|---|
| Flight time | 1h 38m |
| Altitude | 38000 |
| Route | RAVNA DCT ULPIN DCT CRE DCT MONFA DCT SOTOV P66 KPT L608 TEDGO DCT ADENU L608 BATTY |
| Aircraft | A319/M-DE3FGIJ1LORVWY/H |
Departure
| Time | 2026-05-04 12:52 |
|---|---|
| Airport | Zadar Airport (LDZD) |
Arrival
| Time | 2026-05-04 14:31 |
|---|---|
| Airport | Brussels Airport (EBBR) |
| Time | Latitude | Longitude | Altitude | Speed | Heading |
|---|---|---|---|---|---|
| 2026-05-04 12:39 | 44.09650 | 15.35438 | 306 ft | 0 kts | 269° |
| 2026-05-04 12:47 | 44.09650 | 15.35437 | 306 ft | 0 kts | 272° |
| 2026-05-04 12:47 | 44.09651 | 15.35437 | 306 ft | 0 kts | 287° |
| 2026-05-04 12:47 | 44.09654 | 15.35436 | 310 ft | 0 kts | 310° |
| 2026-05-04 12:47 | 44.09658 | 15.35438 | 282 ft | 1 kts | 356° |
| 2026-05-04 12:48 | 44.09660 | 15.35448 | 283 ft | 3 kts | 66° |
| 2026-05-04 12:48 | 44.09656 | 15.35500 | 279 ft | 7 kts | 99° |
| 2026-05-04 12:48 | 44.09622 | 15.35535 | 279 ft | 7 kts | 163° |
| 2026-05-04 12:48 | 44.09570 | 15.35541 | 279 ft | 8 kts | 179° |
| 2026-05-04 12:49 | 44.09509 | 15.35541 | 279 ft | 9 kts | 181° |
| 2026-05-04 12:49 | 44.09442 | 15.35540 | 279 ft | 10 kts | 174° |
| 2026-05-04 12:49 | 44.09383 | 15.35596 | 282 ft | 11 kts | 133° |
| 2026-05-04 12:49 | 44.09334 | 15.35674 | 279 ft | 1 kts | 130° |
| 2026-05-04 12:50 | 44.09333 | 15.35675 | 279 ft | 0 kts | 130° |
| 2026-05-04 12:50 | 44.09328 | 15.35683 | 279 ft | 3 kts | 130° |
| 2026-05-04 12:51 | 44.09306 | 15.35720 | 279 ft | 7 kts | 131° |
| 2026-05-04 12:51 | 44.09246 | 15.35721 | 278 ft | 11 kts | 215° |
| 2026-05-04 12:51 | 44.09234 | 15.35708 | 281 ft | 4 kts | 216° |
| 2026-05-04 12:51 | 44.09004 | 15.35437 | 281 ft | 81 kts | 222° |
| 2026-05-04 12:52 | 44.08429 | 15.34725 | 292 ft | 139 kts | 221° |
| 2026-05-04 12:52 | 44.07690 | 15.33789 | 803 ft | 142 kts | 219° |
| 2026-05-04 12:52 | 44.07005 | 15.32980 | 1402 ft | 142 kts | 219° |
| 2026-05-04 12:52 | 44.06265 | 15.32074 | 2016 ft | 144 kts | 221° |
| 2026-05-04 12:53 | 44.05480 | 15.31104 | 2463 ft | 159 kts | 221° |
| 2026-05-04 12:53 | 44.04613 | 15.30046 | 2873 ft | 179 kts | 221° |
| 2026-05-04 12:53 | 44.03620 | 15.28863 | 3278 ft | 197 kts | 220° |
| 2026-05-04 12:53 | 44.02515 | 15.27522 | 3606 ft | 224 kts | 221° |
| 2026-05-04 12:54 | 44.01298 | 15.26027 | 4239 ft | 239 kts | 222° |
| 2026-05-04 12:54 | 44.00039 | 15.24480 | 5208 ft | 243 kts | 222° |
| 2026-05-04 12:54 | 43.98768 | 15.22920 | 6196 ft | 244 kts | 222° |
| 2026-05-04 12:54 | 43.97489 | 15.21350 | 7100 ft | 248 kts | 221° |
| 2026-05-04 12:55 | 43.96197 | 15.19721 | 7976 ft | 253 kts | 226° |
| 2026-05-04 12:55 | 43.95346 | 15.17577 | 8805 ft | 261 kts | 256° |
| 2026-05-04 12:55 | 43.95354 | 15.15027 | 9499 ft | 277 kts | 285° |
| 2026-05-04 12:55 | 43.96353 | 15.12679 | 10099 ft | 293 kts | 311° |
| 2026-05-04 12:56 | 43.97729 | 15.10547 | 10874 ft | 299 kts | 311° |
| 2026-05-04 12:56 | 43.99146 | 15.08399 | 11684 ft | 305 kts | 315° |
| 2026-05-04 12:56 | 44.00844 | 15.06596 | 12503 ft | 309 kts | 329° |
| 2026-05-04 12:56 | 44.02861 | 15.05339 | 12897 ft | 331 kts | 343° |
| 2026-05-04 12:57 | 44.05150 | 15.04457 | 13230 ft | 350 kts | 345° |
| 2026-05-04 12:57 | 44.07539 | 15.03552 | 13837 ft | 359 kts | 345° |
| 2026-05-04 12:57 | 44.09701 | 15.02730 | 14473 ft | 362 kts | 344° |
| 2026-05-04 12:57 | 44.12130 | 15.01795 | 15208 ft | 364 kts | 344° |
| 2026-05-04 12:58 | 44.14595 | 15.00844 | 15889 ft | 369 kts | 344° |
| 2026-05-04 12:58 | 44.17077 | 14.99882 | 16595 ft | 373 kts | 343° |
| 2026-05-04 12:58 | 44.19584 | 14.98906 | 17271 ft | 376 kts | 343° |
| 2026-05-04 12:58 | 44.22125 | 14.97916 | 17957 ft | 380 kts | 343° |
| 2026-05-04 12:59 | 44.24687 | 14.96918 | 18611 ft | 384 kts | 343° |
| 2026-05-04 12:59 | 44.27270 | 14.95911 | 19220 ft | 387 kts | 343° |
| 2026-05-04 12:59 | 44.29862 | 14.94901 | 19858 ft | 388 kts | 343° |
| 2026-05-04 12:59 | 44.32465 | 14.93886 | 20528 ft | 390 kts | 343° |
| 2026-05-04 13:00 | 44.35089 | 14.92863 | 21174 ft | 392 kts | 343° |
| 2026-05-04 13:00 | 44.37721 | 14.91833 | 21817 ft | 393 kts | 343° |
| 2026-05-04 13:00 | 44.40354 | 14.90803 | 22469 ft | 395 kts | 343° |
| 2026-05-04 13:00 | 44.43006 | 14.89766 | 23099 ft | 396 kts | 343° |
| 2026-05-04 13:01 | 44.45675 | 14.88723 | 23699 ft | 398 kts | 343° |
| 2026-05-04 13:01 | 44.48329 | 14.87684 | 24180 ft | 401 kts | 343° |
| 2026-05-04 13:01 | 44.51024 | 14.86538 | 24636 ft | 402 kts | 338° |
| 2026-05-04 13:01 | 44.53545 | 14.84851 | 25086 ft | 403 kts | 328° |
| 2026-05-04 13:02 | 44.55800 | 14.82598 | 25528 ft | 404 kts | 319° |
| 2026-05-04 13:02 | 44.57978 | 14.80013 | 25972 ft | 406 kts | 319° |
| 2026-05-04 13:02 | 44.59961 | 14.77673 | 26355 ft | 408 kts | 319° |
| 2026-05-04 13:02 | 44.62114 | 14.75137 | 26793 ft | 411 kts | 319° |
| 2026-05-04 13:03 | 44.64311 | 14.72546 | 27186 ft | 414 kts | 319° |
| 2026-05-04 13:03 | 44.66513 | 14.69945 | 27599 ft | 416 kts | 319° |
| 2026-05-04 13:03 | 44.68663 | 14.67193 | 28013 ft | 418 kts | 311° |
| 2026-05-04 13:03 | 44.70529 | 14.64069 | 28410 ft | 421 kts | 309° |
| 2026-05-04 13:04 | 44.72418 | 14.60867 | 28819 ft | 423 kts | 309° |
| 2026-05-04 13:04 | 44.74284 | 14.57697 | 29219 ft | 426 kts | 309° |
| 2026-05-04 13:04 | 44.76181 | 14.54466 | 29608 ft | 428 kts | 308° |
| 2026-05-04 13:04 | 44.78084 | 14.51216 | 30035 ft | 429 kts | 308° |
| 2026-05-04 13:05 | 44.79984 | 14.47964 | 30390 ft | 431 kts | 308° |
| 2026-05-04 13:05 | 44.81886 | 14.44704 | 30715 ft | 433 kts | 308° |
| 2026-05-04 13:05 | 44.83805 | 14.41413 | 31035 ft | 435 kts | 308° |
| 2026-05-04 13:05 | 44.85725 | 14.38119 | 31353 ft | 436 kts | 308° |
| 2026-05-04 13:06 | 44.87655 | 14.34807 | 31651 ft | 438 kts | 308° |
| 2026-05-04 13:06 | 44.89596 | 14.31472 | 32013 ft | 439 kts | 308° |
| 2026-05-04 13:06 | 44.91526 | 14.28154 | 32475 ft | 437 kts | 308° |
| 2026-05-04 13:06 | 44.93448 | 14.24844 | 32931 ft | 435 kts | 308° |
| 2026-05-04 13:07 | 44.95367 | 14.21537 | 33341 ft | 435 kts | 308° |
| 2026-05-04 13:07 | 44.97281 | 14.18234 | 33731 ft | 435 kts | 308° |
| 2026-05-04 13:07 | 44.99190 | 14.14936 | 34143 ft | 434 kts | 308° |
| 2026-05-04 13:07 | 45.01081 | 14.11668 | 34521 ft | 433 kts | 308° |
| 2026-05-04 13:08 | 45.03003 | 14.08339 | 34906 ft | 432 kts | 308° |
| 2026-05-04 13:08 | 45.04903 | 14.05043 | 35283 ft | 431 kts | 308° |
| 2026-05-04 13:08 | 45.06793 | 14.01759 | 35639 ft | 430 kts | 308° |
| 2026-05-04 13:08 | 45.08649 | 13.98529 | 35970 ft | 429 kts | 308° |
| 2026-05-04 13:09 | 45.10526 | 13.95256 | 36303 ft | 428 kts | 307° |
| 2026-05-04 13:09 | 45.12400 | 13.91985 | 36627 ft | 428 kts | 307° |
| 2026-05-04 13:09 | 45.14274 | 13.88708 | 36893 ft | 428 kts | 307° |
| 2026-05-04 13:09 | 45.16145 | 13.85437 | 37196 ft | 428 kts | 307° |
| 2026-05-04 13:10 | 45.18013 | 13.82170 | 37508 ft | 427 kts | 307° |
| 2026-05-04 13:10 | 45.19888 | 13.78890 | 37825 ft | 426 kts | 307° |
| 2026-05-04 13:10 | 45.21753 | 13.75629 | 38067 ft | 426 kts | 307° |
| 2026-05-04 13:11 | 45.25466 | 13.69120 | 38108 ft | 424 kts | 307° |
| 2026-05-04 13:11 | 45.29166 | 13.62608 | 38119 ft | 423 kts | 307° |
| 2026-05-04 13:12 | 45.32859 | 13.56094 | 38113 ft | 424 kts | 307° |
| 2026-05-04 13:12 | 45.35930 | 13.50668 | 38110 ft | 424 kts | 307° |
| 2026-05-04 13:13 | 45.39462 | 13.44400 | 38111 ft | 424 kts | 307° |
| 2026-05-04 13:13 | 45.43153 | 13.37845 | 38110 ft | 425 kts | 307° |
| 2026-05-04 13:14 | 45.46844 | 13.31275 | 38114 ft | 425 kts | 306° |
| 2026-05-04 13:14 | 45.50823 | 13.25032 | 38109 ft | 427 kts | 314° |
| 2026-05-04 13:15 | 45.55124 | 13.19171 | 38103 ft | 427 kts | 314° |
| 2026-05-04 13:15 | 45.59412 | 13.13309 | 38102 ft | 427 kts | 314° |
| 2026-05-04 13:16 | 45.63699 | 13.07425 | 38097 ft | 427 kts | 314° |
| 2026-05-04 13:16 | 45.67977 | 13.01513 | 38104 ft | 428 kts | 313° |
| 2026-05-04 13:17 | 45.72249 | 12.95593 | 38093 ft | 428 kts | 313° |
| 2026-05-04 13:17 | 45.76529 | 12.89668 | 38087 ft | 428 kts | 313° |
| 2026-05-04 13:18 | 45.80803 | 12.83743 | 38083 ft | 428 kts | 313° |
| 2026-05-04 13:18 | 45.85077 | 12.77812 | 38080 ft | 428 kts | 313° |
| 2026-05-04 13:19 | 45.89349 | 12.71870 | 38089 ft | 428 kts | 313° |
| 2026-05-04 13:19 | 45.93592 | 12.65947 | 38092 ft | 428 kts | 313° |
| 2026-05-04 13:20 | 45.97878 | 12.59931 | 38087 ft | 428 kts | 313° |
| 2026-05-04 13:20 | 46.02137 | 12.53944 | 38087 ft | 429 kts | 313° |
| 2026-05-04 13:21 | 46.06403 | 12.47944 | 38087 ft | 429 kts | 313° |
| 2026-05-04 13:21 | 46.10661 | 12.41946 | 38084 ft | 428 kts | 313° |
| 2026-05-04 13:22 | 46.14892 | 12.35973 | 38086 ft | 429 kts | 313° |
| 2026-05-04 13:22 | 46.19158 | 12.29946 | 38087 ft | 429 kts | 313° |
| 2026-05-04 13:23 | 46.23198 | 12.24219 | 38080 ft | 429 kts | 312° |
| 2026-05-04 13:23 | 46.27434 | 12.18177 | 38065 ft | 427 kts | 312° |
| 2026-05-04 13:24 | 46.31673 | 12.12136 | 38069 ft | 428 kts | 312° |
| 2026-05-04 13:24 | 46.35915 | 12.06079 | 38081 ft | 429 kts | 312° |
| 2026-05-04 13:25 | 46.42288 | 11.96954 | 38079 ft | 429 kts | 312° |
| 2026-05-04 13:25 | 46.46523 | 11.90859 | 38073 ft | 429 kts | 312° |
| 2026-05-04 13:26 | 46.50760 | 11.84751 | 38075 ft | 430 kts | 312° |
| 2026-05-04 13:26 | 46.55002 | 11.78632 | 38063 ft | 430 kts | 312° |
| 2026-05-04 13:27 | 46.59244 | 11.72498 | 38062 ft | 429 kts | 312° |
| 2026-05-04 13:27 | 46.63134 | 11.66848 | 38050 ft | 429 kts | 312° |
| 2026-05-04 13:28 | 46.67351 | 11.60708 | 38049 ft | 429 kts | 312° |
| 2026-05-04 13:28 | 46.71569 | 11.54561 | 38052 ft | 429 kts | 312° |
| 2026-05-04 13:29 | 46.73572 | 11.51644 | 38039 ft | 428 kts | 312° |
| 2026-05-04 13:29 | 46.77464 | 11.45959 | 38018 ft | 429 kts | 312° |
| 2026-05-04 13:30 | 46.81675 | 11.39791 | 38041 ft | 429 kts | 312° |
| 2026-05-04 13:30 | 46.85876 | 11.33622 | 38033 ft | 429 kts | 312° |
| 2026-05-04 13:31 | 46.90059 | 11.27468 | 38040 ft | 430 kts | 312° |
| 2026-05-04 13:31 | 46.94331 | 11.21374 | 38022 ft | 431 kts | 318° |
| 2026-05-04 13:32 | 46.99380 | 11.16488 | 38037 ft | 435 kts | 325° |
| 2026-05-04 13:32 | 47.04506 | 11.11776 | 38015 ft | 435 kts | 324° |
| 2026-05-04 13:33 | 47.09573 | 11.06924 | 38032 ft | 434 kts | 318° |
| 2026-05-04 13:33 | 47.14254 | 11.01332 | 38009 ft | 433 kts | 318° |
| 2026-05-04 13:34 | 47.18926 | 10.95743 | 38009 ft | 433 kts | 318° |
| 2026-05-04 13:34 | 47.23599 | 10.90131 | 38004 ft | 434 kts | 317° |
| 2026-05-04 13:35 | 47.30601 | 10.81715 | 38014 ft | 433 kts | 317° |
| 2026-05-04 13:36 | 47.35254 | 10.76097 | 38005 ft | 434 kts | 317° |
| 2026-05-04 13:36 | 47.39974 | 10.70450 | 37997 ft | 435 kts | 320° |
| 2026-05-04 13:37 | 47.44920 | 10.65279 | 38011 ft | 437 kts | 323° |
| 2026-05-04 13:37 | 47.49999 | 10.60316 | 38008 ft | 437 kts | 323° |
| 2026-05-04 13:38 | 47.54762 | 10.55558 | 38011 ft | 437 kts | 322° |
| 2026-05-04 13:38 | 47.59717 | 10.50457 | 38018 ft | 437 kts | 321° |
| 2026-05-04 13:39 | 47.64687 | 10.45274 | 38014 ft | 437 kts | 321° |
| 2026-05-04 13:39 | 47.69666 | 10.40086 | 37997 ft | 437 kts | 321° |
| 2026-05-04 13:40 | 47.74651 | 10.34902 | 37989 ft | 437 kts | 321° |
| 2026-05-04 13:40 | 47.79437 | 10.29391 | 37992 ft | 435 kts | 317° |
| 2026-05-04 13:41 | 47.84066 | 10.23590 | 38005 ft | 434 kts | 316° |
| 2026-05-04 13:41 | 47.88686 | 10.17791 | 38024 ft | 435 kts | 316° |
| 2026-05-04 13:42 | 47.95699 | 10.09183 | 38007 ft | 436 kts | 317° |
| 2026-05-04 13:42 | 48.00386 | 10.03454 | 38009 ft | 436 kts | 317° |
| 2026-05-04 13:43 | 48.05068 | 9.97693 | 37987 ft | 436 kts | 316° |
| 2026-05-04 13:43 | 48.09742 | 9.91923 | 37985 ft | 435 kts | 316° |
| 2026-05-04 13:44 | 48.14411 | 9.86141 | 37985 ft | 435 kts | 316° |
| 2026-05-04 13:44 | 48.19073 | 9.80356 | 37987 ft | 436 kts | 316° |
| 2026-05-04 13:45 | 48.23744 | 9.74541 | 37982 ft | 436 kts | 316° |
| 2026-05-04 13:45 | 48.28406 | 9.68717 | 37990 ft | 436 kts | 316° |
| 2026-05-04 13:46 | 48.32914 | 9.63078 | 37985 ft | 436 kts | 316° |
| 2026-05-04 13:46 | 48.37540 | 9.57239 | 37987 ft | 436 kts | 315° |
| 2026-05-04 13:47 | 48.42159 | 9.51312 | 38000 ft | 436 kts | 315° |
| 2026-05-04 13:47 | 48.46767 | 9.45381 | 37993 ft | 436 kts | 315° |
| 2026-05-04 13:48 | 48.51389 | 9.39434 | 37992 ft | 436 kts | 315° |
| 2026-05-04 13:48 | 48.56003 | 9.33482 | 37982 ft | 436 kts | 315° |
| 2026-05-04 13:49 | 48.60583 | 9.27554 | 37978 ft | 437 kts | 315° |
| 2026-05-04 13:49 | 48.64882 | 9.21065 | 37977 ft | 433 kts | 309° |
| 2026-05-04 13:50 | 48.68989 | 9.14480 | 37989 ft | 434 kts | 309° |
| 2026-05-04 13:50 | 48.73141 | 9.07837 | 37983 ft | 434 kts | 309° |
| 2026-05-04 13:51 | 48.77310 | 9.01134 | 37984 ft | 435 kts | 309° |
| 2026-05-04 13:51 | 48.81414 | 8.94501 | 37984 ft | 435 kts | 309° |
| 2026-05-04 13:52 | 48.87619 | 8.84455 | 37986 ft | 435 kts | 309° |
| 2026-05-04 13:53 | 48.91769 | 8.77715 | 38009 ft | 435 kts | 309° |
| 2026-05-04 13:53 | 48.95898 | 8.70970 | 37991 ft | 436 kts | 309° |
| 2026-05-04 13:54 | 49.02100 | 8.60836 | 37994 ft | 437 kts | 309° |
| 2026-05-04 13:55 | 49.08294 | 8.50657 | 37995 ft | 437 kts | 309° |
| 2026-05-04 13:55 | 49.14501 | 8.40452 | 37997 ft | 437 kts | 308° |
| 2026-05-04 13:56 | 49.18627 | 8.33643 | 38000 ft | 437 kts | 308° |
| 2026-05-04 13:57 | 49.24798 | 8.23399 | 38013 ft | 437 kts | 308° |
| 2026-05-04 13:58 | 49.33048 | 8.09663 | 36849 ft | 438 kts | 308° |
| 2026-05-04 13:58 | 49.37160 | 8.02785 | 35829 ft | 437 kts | 307° |
| 2026-05-04 13:58 | 49.39212 | 7.99340 | 35326 ft | 439 kts | 307° |
| 2026-05-04 13:59 | 49.41277 | 7.95867 | 34829 ft | 440 kts | 307° |
| 2026-05-04 13:59 | 49.43338 | 7.92397 | 34346 ft | 441 kts | 307° |
| 2026-05-04 13:59 | 49.47474 | 7.85420 | 33291 ft | 440 kts | 307° |
| 2026-05-04 14:00 | 49.48845 | 7.83113 | 32936 ft | 438 kts | 307° |
| 2026-05-04 14:00 | 49.53579 | 7.75138 | 32134 ft | 432 kts | 307° |
| 2026-05-04 14:00 | 49.55596 | 7.71726 | 31868 ft | 430 kts | 307° |
| 2026-05-04 14:01 | 49.57602 | 7.68323 | 31613 ft | 429 kts | 307° |
| 2026-05-04 14:01 | 49.58957 | 7.66018 | 31439 ft | 428 kts | 307° |
| 2026-05-04 14:01 | 49.63575 | 7.58152 | 30866 ft | 425 kts | 306° |
| 2026-05-04 14:02 | 49.64920 | 7.55861 | 30694 ft | 424 kts | 306° |
| 2026-05-04 14:02 | 49.66900 | 7.52485 | 30455 ft | 423 kts | 306° |
| 2026-05-04 14:02 | 49.68868 | 7.49120 | 30215 ft | 421 kts | 306° |
| 2026-05-04 14:02 | 49.70799 | 7.45814 | 29959 ft | 419 kts | 306° |
| 2026-05-04 14:03 | 49.72774 | 7.42432 | 29670 ft | 418 kts | 306° |
| 2026-05-04 14:03 | 49.74717 | 7.39104 | 29402 ft | 417 kts | 307° |
| 2026-05-04 14:03 | 49.76659 | 7.35776 | 29121 ft | 417 kts | 307° |
| 2026-05-04 14:03 | 49.78573 | 7.32487 | 28846 ft | 415 kts | 307° |
| 2026-05-04 14:04 | 49.82414 | 7.25869 | 28302 ft | 412 kts | 307° |
| 2026-05-04 14:04 | 49.84347 | 7.22518 | 28050 ft | 411 kts | 307° |
| 2026-05-04 14:04 | 49.86225 | 7.19259 | 27791 ft | 410 kts | 307° |
| 2026-05-04 14:05 | 49.90021 | 7.12681 | 27246 ft | 408 kts | 307° |
| 2026-05-04 14:05 | 49.91912 | 7.09401 | 27009 ft | 406 kts | 307° |
| 2026-05-04 14:05 | 49.93791 | 7.06137 | 26758 ft | 405 kts | 307° |
| 2026-05-04 14:06 | 49.95668 | 7.02877 | 26499 ft | 404 kts | 307° |
| 2026-05-04 14:06 | 49.97532 | 6.99634 | 26247 ft | 402 kts | 307° |
| 2026-05-04 14:06 | 49.99388 | 6.96394 | 25985 ft | 401 kts | 307° |
| 2026-05-04 14:06 | 50.01230 | 6.93175 | 25731 ft | 400 kts | 307° |
| 2026-05-04 14:07 | 50.02914 | 6.89754 | 25486 ft | 394 kts | 298° |
| 2026-05-04 14:07 | 50.04256 | 6.86071 | 25245 ft | 390 kts | 294° |
| 2026-05-04 14:07 | 50.05561 | 6.82373 | 25016 ft | 390 kts | 294° |
| 2026-05-04 14:07 | 50.06872 | 6.78690 | 24779 ft | 389 kts | 295° |
| 2026-05-04 14:08 | 50.08183 | 6.75017 | 24545 ft | 388 kts | 295° |
| 2026-05-04 14:08 | 50.09489 | 6.71355 | 24309 ft | 387 kts | 295° |
| 2026-05-04 14:08 | 50.10791 | 6.67700 | 24070 ft | 385 kts | 295° |
| 2026-05-04 14:08 | 50.12084 | 6.64059 | 23839 ft | 384 kts | 295° |
| 2026-05-04 14:09 | 50.14657 | 6.56780 | 23334 ft | 382 kts | 295° |
| 2026-05-04 14:09 | 50.15925 | 6.53174 | 22973 ft | 376 kts | 295° |
| 2026-05-04 14:10 | 50.18543 | 6.46211 | 22029 ft | 372 kts | 303° |
| 2026-05-04 14:10 | 50.20303 | 6.43233 | 21463 ft | 377 kts | 315° |
| 2026-05-04 14:10 | 50.22304 | 6.40645 | 20903 ft | 378 kts | 317° |
| 2026-05-04 14:10 | 50.24353 | 6.38006 | 20391 ft | 377 kts | 317° |
| 2026-05-04 14:11 | 50.26372 | 6.35394 | 19933 ft | 374 kts | 317° |
| 2026-05-04 14:11 | 50.30344 | 6.30245 | 19060 ft | 369 kts | 317° |
| 2026-05-04 14:11 | 50.32284 | 6.27727 | 18641 ft | 367 kts | 317° |
| 2026-05-04 14:12 | 50.34240 | 6.25185 | 18212 ft | 364 kts | 317° |
| 2026-05-04 14:12 | 50.36183 | 6.22657 | 17726 ft | 362 kts | 317° |
| 2026-05-04 14:12 | 50.40019 | 6.17642 | 16830 ft | 357 kts | 317° |
| 2026-05-04 14:13 | 50.41914 | 6.15160 | 16401 ft | 354 kts | 317° |
| 2026-05-04 14:13 | 50.43805 | 6.12686 | 15975 ft | 352 kts | 317° |
| 2026-05-04 14:13 | 50.45671 | 6.10244 | 15543 ft | 350 kts | 318° |
| 2026-05-04 14:13 | 50.47534 | 6.07807 | 15141 ft | 347 kts | 318° |
| 2026-05-04 14:14 | 50.49386 | 6.05384 | 14741 ft | 345 kts | 319° |
| 2026-05-04 14:14 | 50.53024 | 6.00608 | 14066 ft | 336 kts | 319° |
| 2026-05-04 14:14 | 50.54810 | 5.98258 | 13809 ft | 334 kts | 320° |
| 2026-05-04 14:15 | 50.58342 | 5.93596 | 13279 ft | 330 kts | 320° |
| 2026-05-04 14:15 | 50.61849 | 5.88956 | 12752 ft | 328 kts | 320° |
| 2026-05-04 14:16 | 50.65089 | 5.83987 | 12236 ft | 325 kts | 305° |
| 2026-05-04 14:16 | 50.66209 | 5.80915 | 11980 ft | 323 kts | 296° |
| 2026-05-04 14:17 | 50.68219 | 5.74621 | 11458 ft | 321 kts | 296° |
| 2026-05-04 14:17 | 50.69227 | 5.71490 | 11230 ft | 320 kts | 296° |
| 2026-05-04 14:17 | 50.71235 | 5.65258 | 10730 ft | 317 kts | 296° |
| 2026-05-04 14:18 | 50.72229 | 5.62159 | 10493 ft | 316 kts | 296° |
| 2026-05-04 14:18 | 50.74195 | 5.56016 | 10008 ft | 312 kts | 297° |
| 2026-05-04 14:19 | 50.76137 | 5.49934 | 9720 ft | 309 kts | 297° |
| 2026-05-04 14:19 | 50.77088 | 5.46950 | 9590 ft | 308 kts | 296° |
| 2026-05-04 14:19 | 50.78047 | 5.43935 | 9460 ft | 308 kts | 296° |
| 2026-05-04 14:19 | 50.79004 | 5.40923 | 9322 ft | 304 kts | 296° |
| 2026-05-04 14:20 | 50.79926 | 5.38014 | 9175 ft | 286 kts | 296° |
| 2026-05-04 14:20 | 50.80795 | 5.35272 | 8853 ft | 273 kts | 296° |
| 2026-05-04 14:20 | 50.81644 | 5.32593 | 8597 ft | 274 kts | 296° |
| 2026-05-04 14:21 | 50.83334 | 5.27248 | 8041 ft | 270 kts | 296° |
| 2026-05-04 14:21 | 50.84172 | 5.24591 | 7751 ft | 269 kts | 296° |
| 2026-05-04 14:21 | 50.85001 | 5.21948 | 7476 ft | 268 kts | 296° |
| 2026-05-04 14:21 | 50.85827 | 5.19308 | 7198 ft | 267 kts | 296° |
| 2026-05-04 14:22 | 50.86653 | 5.16677 | 6941 ft | 266 kts | 296° |
| 2026-05-04 14:22 | 50.87473 | 5.14067 | 6660 ft | 264 kts | 296° |
| 2026-05-04 14:22 | 50.88425 | 5.11586 | 6390 ft | 263 kts | 303° |
| 2026-05-04 14:22 | 50.89415 | 5.09158 | 6107 ft | 262 kts | 302° |
| 2026-05-04 14:23 | 50.91305 | 5.04446 | 5583 ft | 260 kts | 302° |
| 2026-05-04 14:23 | 50.92273 | 5.02026 | 5317 ft | 259 kts | 302° |
| 2026-05-04 14:23 | 50.93239 | 4.99613 | 5051 ft | 259 kts | 302° |
| 2026-05-04 14:24 | 50.94191 | 4.97236 | 4784 ft | 250 kts | 302° |
| 2026-05-04 14:24 | 50.95097 | 4.94973 | 4541 ft | 238 kts | 302° |
| 2026-05-04 14:24 | 50.95974 | 4.92778 | 4464 ft | 236 kts | 302° |
| 2026-05-04 14:24 | 50.96853 | 4.90574 | 4362 ft | 235 kts | 301° |
| 2026-05-04 14:25 | 50.97449 | 4.88177 | 4255 ft | 234 kts | 279° |
| 2026-05-04 14:25 | 50.96999 | 4.83437 | 3856 ft | 230 kts | 249° |
| 2026-05-04 14:25 | 50.96464 | 4.81075 | 3621 ft | 225 kts | 250° |
| 2026-05-04 14:26 | 50.95942 | 4.78763 | 3416 ft | 220 kts | 250° |
| 2026-05-04 14:26 | 50.95440 | 4.76554 | 3297 ft | 208 kts | 250° |
| 2026-05-04 14:26 | 50.94961 | 4.74451 | 3083 ft | 203 kts | 250° |
| 2026-05-04 14:26 | 50.94591 | 4.72827 | 2911 ft | 193 kts | 250° |
| 2026-05-04 14:27 | 50.94147 | 4.70882 | 2633 ft | 182 kts | 250° |
| 2026-05-04 14:27 | 50.93721 | 4.69020 | 2392 ft | 173 kts | 251° |
| 2026-05-04 14:27 | 50.93320 | 4.67263 | 2178 ft | 166 kts | 251° |
| 2026-05-04 14:27 | 50.92936 | 4.65589 | 1963 ft | 157 kts | 251° |
| 2026-05-04 14:28 | 50.92578 | 4.64024 | 1756 ft | 149 kts | 251° |
| 2026-05-04 14:28 | 50.92234 | 4.62522 | 1558 ft | 142 kts | 251° |
| 2026-05-04 14:28 | 50.91900 | 4.61065 | 1377 ft | 140 kts | 251° |
| 2026-05-04 14:28 | 50.91566 | 4.59609 | 1184 ft | 138 kts | 250° |
| 2026-05-04 14:29 | 50.90913 | 4.56759 | 795 ft | 137 kts | 250° |
| 2026-05-04 14:29 | 50.90268 | 4.53956 | 421 ft | 135 kts | 248° |
| 2026-05-04 14:30 | 50.89946 | 4.52555 | 240 ft | 135 kts | 248° |
| 2026-05-04 14:30 | 50.89633 | 4.51207 | 174 ft | 117 kts | 250° |
| 2026-05-04 14:30 | 50.89271 | 4.49638 | 177 ft | 55 kts | 250° |
| 2026-05-04 14:31 | 50.89275 | 4.49223 | 172 ft | 25 kts | 306° |
| 2026-05-04 14:31 | 50.89297 | 4.49177 | 170 ft | 4 kts | 307° |
| 2026-05-04 14:32 | 50.89441 | 4.49139 | 180 ft | 19 kts | 14° |
| 2026-05-04 14:32 | 50.89586 | 4.49209 | 156 ft | 25 kts | 31° |
| 2026-05-04 14:32 | 50.89760 | 4.49308 | 146 ft | 29 kts | 13° |
| 2026-05-04 14:32 | 50.89949 | 4.49386 | 134 ft | 27 kts | 14° |
| 2026-05-04 14:33 | 50.90114 | 4.49452 | 130 ft | 24 kts | 14° |
| 2026-05-04 14:33 | 50.90284 | 4.49521 | 126 ft | 25 kts | 14° |
| 2026-05-04 14:33 | 50.90411 | 4.49428 | 124 ft | 15 kts | 284° |
| 2026-05-04 14:33 | 50.90445 | 4.49287 | 120 ft | 15 kts | 328° |
| 2026-05-04 14:34 | 50.90540 | 4.49213 | 122 ft | 14 kts | 336° |
| 2026-05-04 14:34 | 50.90626 | 4.49148 | 119 ft | 14 kts | 323° |
| 2026-05-04 14:34 | 50.90622 | 4.48997 | 118 ft | 16 kts | 245° |
| 2026-05-04 14:34 | 50.90582 | 4.48856 | 120 ft | 14 kts | 244° |
| 2026-05-04 14:35 | 50.90539 | 4.48711 | 120 ft | 15 kts | 245° |
| 2026-05-04 14:35 | 50.90498 | 4.48567 | 119 ft | 13 kts | 245° |
| 2026-05-04 14:35 | 50.90460 | 4.48443 | 119 ft | 11 kts | 227° |
| 2026-05-04 14:35 | 50.90398 | 4.48466 | 119 ft | 9 kts | 155° |
| 2026-05-04 14:36 | 50.90376 | 4.48482 | 120 ft | 0 kts | 155° |